Time;durP1;ratioP1;P1;durP2;ratioP2;P2;SDS_P1;SDS_P2;PMS_P1;PMS_P2;Temp;Humidity;BMP_temperature;BMP_pressure;BME280_temperature;BME280_humidity;BME280_pressure;Samples;Min_cycle;Max_cycle;Signal;HPM_P1;HPM_P2
2023/11/02 00:02:02;;;;;;;0.40;0.40;;;;;;;3.99;95.61;98662.03;5068780;28;20048;-71
2023/11/02 00:04:28;;;;;;;0.40;0.40;;;;;;;3.91;97.04;98664.69;5050587;28;20028;-71
2023/11/02 00:06:55;;;;;;;0.40;0.40;;;;;;;4.31;94.36;98645.44;5068457;28;20049;-72
2023/11/02 00:09:27;;;;;;;0.40;0.40;;;;;;;4.26;95.57;98647.22;5050387;28;20016;-72
2023/11/02 00:11:59;;;;;;;0.40;0.40;;;;;;;4.15;95.91;98647.34;5068663;28;20025;-72
2023/11/02 00:14:54;;;;;;;0.40;0.40;;;;;;;4.19;95.42;98644.72;5068455;28;20028;-71
2023/11/02 00:17:28;;;;;;;0.40;0.40;;;;;;;4.20;96.10;98632.72;5051039;28;20485;-70
2023/11/02 00:19:54;;;;;;;0.40;0.40;;;;;;;4.06;96.60;98625.16;5068524;28;20036;-72
2023/11/02 00:22:20;;;;;;;0.40;0.40;;;;;;;3.99;96.96;98624.38;5068431;28;20021;-70
2023/11/02 00:24:48;;;;;;;0.40;0.40;;;;;;;3.95;97.96;98630.41;5068057;28;20025;-72
2023/11/02 00:27:13;;;;;;;0.40;0.40;;;;;;;3.85;97.72;98601.41;5068147;28;20052;-73
2023/11/02 00:29:39;;;;;;;0.40;0.40;;;;;;;4.08;97.74;98623.44;5068329;28;20029;-70
2023/11/02 00:32:05;;;;;;;0.43;0.43;;;;;;;4.37;96.32;98609.41;5068281;28;20172;-71
2023/11/02 00:34:34;;;;;;;0.40;0.40;;;;;;;4.10;97.71;98631.97;5050223;28;20024;-71
2023/11/02 00:37:00;;;;;;;0.40;0.40;;;;;;;4.35;97.97;98623.97;5050013;28;20457;-70
2023/11/02 00:39:26;;;;;;;0.40;0.40;;;;;;;4.07;98.70;98612.28;5050114;28;20025;-70
2023/11/02 00:41:52;;;;;;;0.40;0.40;;;;;;;4.09;98.87;98607.13;5068110;28;20020;-71
2023/11/02 00:44:18;;;;;;;0.40;0.40;;;;;;;4.38;97.08;98594.84;5049873;28;20047;-71
2023/11/02 00:46:45;;;;;;;0.40;0.40;;;;;;;4.40;96.67;98611.94;5067848;28;20029;-71
2023/11/02 00:49:19;;;;;;;0.40;0.40;;;;;;;4.15;98.70;98619.94;5049912;28;20025;-71
2023/11/02 00:51:57;;;;;;;0.40;0.40;;;;;;;4.10;99.44;98624.28;5049900;28;20089;-71
2023/11/02 00:54:44;;;;;;;0.40;0.40;;;;;;;4.32;99.42;98606.03;5067817;28;20025;-69
2023/11/02 00:57:14;;;;;;;0.40;0.40;;;;;;;4.41;97.67;98598.22;5067955;28;20028;-71
2023/11/02 00:59:40;;;;;;;0.40;0.40;;;;;;;4.40;98.56;98601.66;5049685;28;20020;-70
2023/11/02 01:02:07;;;;;;;0.40;0.40;;;;;;;4.19;99.36;98602.75;5067716;28;20036;-71
2023/11/02 01:04:35;;;;;;;0.40;0.40;;;;;;;4.25;99.51;98592.41;5067627;28;20021;-70
2023/11/02 01:07:00;;;;;;;0.40;0.40;;;;;;;4.52;98.90;98589.53;5045989;28;20084;-71
2023/11/02 01:09:44;;;;;;;2.30;2.17;;;;;;;4.54;98.34;98587.78;5047372;28;20093;-70
2023/11/02 01:12:10;;;;;;;0.40;0.40;;;;;;;4.28;99.57;98573.56;5046999;28;20026;-70
2023/11/02 01:14:42;;;;;;;4.00;3.63;;;;;;;4.42;99.47;98587.09;5047499;28;20032;-70
2023/11/02 01:17:09;;;;;;;0.50;0.50;;;;;;;4.80;97.99;98599.44;5047556;28;20036;-72
2023/11/02 01:19:57;;;;;;;0.40;0.40;;;;;;;4.82;97.66;98588.25;5047300;28;20028;-70
2023/11/02 01:22:28;;;;;;;1.30;1.30;;;;;;;4.54;98.37;98574.91;5047113;28;20025;-71
2023/11/02 01:25:00;;;;;;;0.50;0.50;;;;;;;4.47;99.54;98579.31;5047065;28;20036;-71
2023/11/02 01:27:27;;;;;;;;;;;;;;;4.66;99.76;98587.63;5046124;28;20262;-71
2023/11/02 01:29:53;;;;;;;0.40;0.40;;;;;;;4.46;99.93;98575.88;5047241;28;20008;-70
2023/11/02 01:32:18;;;;;;;0.40;0.40;;;;;;;4.50;100.00;98580.97;5047106;28;20083;-70
2023/11/02 01:34:43;;;;;;;0.40;0.40;;;;;;;4.55;100.00;98574.91;5047025;28;20374;-70
2023/11/02 01:37:12;;;;;;;0.40;0.40;;;;;;;4.37;100.00;98567.44;5047437;28;20021;-71
2023/11/02 01:39:43;;;;;;;0.40;0.40;;;;;;;4.74;100.00;98564.38;5046841;28;20025;-70
2023/11/02 01:42:26;;;;;;;0.50;0.50;;;;;;;4.86;100.00;98550.47;5046918;28;20128;-71
2023/11/02 01:45:09;;;;;;;0.40;0.40;;;;;;;4.64;100.00;98553.38;5046887;28;20037;-71
2023/11/02 01:47:58;;;;;;;0.40;0.40;;;;;;;4.94;98.90;98553.78;5046977;28;20104;-72
2023/11/02 01:50:44;;;;;;;0.40;0.40;;;;;;;4.91;99.88;98550.41;5047005;28;20017;-72
2023/11/02 01:53:28;;;;;;;0.40;0.40;;;;;;;4.87;100.00;98544.50;5046974;28;20045;-71
2023/11/02 01:56:17;;;;;;;0.40;0.40;;;;;;;4.79;100.00;98547.16;5045322;28;20552;-71
2023/11/02 01:59:25;;;;;;;0.40;0.40;;;;;;;4.98;100.00;98543.47;5046622;28;20029;-71
2023/11/02 02:01:56;;;;;;;0.40;0.40;;;;;;;4.96;100.00;98546.91;5046494;28;20033;-70
2023/11/02 02:04:40;;;;;;;0.40;0.40;;;;;;;4.78;100.00;98536.88;5046455;28;20033;-71
2023/11/02 02:07:36;;;;;;;0.40;0.40;;;;;;;5.00;100.00;98539.97;5054695;28;20040;-70
2023/11/02 02:10:09;;;;;;;0.40;0.40;;;;;;;4.82;100.00;98525.69;5048279;28;20048;-70
2023/11/02 02:13:01;;;;;;;0.40;0.40;;;;;;;5.08;100.00;98537.28;5048325;28;20086;-70
2023/11/02 02:16:05;;;;;;;0.40;0.40;;;;;;;5.08;100.00;98542.41;5066168;28;20021;-70
2023/11/02 02:18:45;;;;;;;0.40;0.40;;;;;;;5.30;100.00;98544.66;5048320;28;20021;-71
2023/11/02 02:21:37;;;;;;;0.40;0.40;;;;;;;5.13;100.00;98545.78;5065922;28;20055;-71
2023/11/02 02:24:13;;;;;;;0.40;0.40;;;;;;;5.08;100.00;98538.13;5061357;28;20064;-71
2023/11/02 02:26:56;;;;;;;0.40;0.40;;;;;;;4.98;100.00;98536.59;5066091;28;20484;-71
2023/11/02 02:29:49;;;;;;;0.40;0.40;;;;;;;5.46;100.00;98533.22;5066123;28;20028;-70
2023/11/02 02:32:59;;;;;;;0.40;0.40;;;;;;;5.45;100.00;98528.09;5066231;28;20032;-70
2023/11/02 02:36:08;;;;;;;0.35;0.35;;;;;;;5.41;100.00;98524.75;5063654;28;20063;-71
2023/11/02 02:38:46;;;;;;;0.40;0.40;;;;;;;5.38;100.00;98535.09;5054611;28;20097;-71
2023/11/02 02:41:16;;;;;;;0.40;0.40;;;;;;;5.43;100.00;98535.00;5065798;28;20024;-71
2023/11/02 02:43:41;;;;;;;1.65;1.55;;;;;;;5.17;100.00;98533.72;5047450;28;20048;-70
2023/11/02 02:46:10;;;;;;;0.40;0.40;;;;;;;5.27;100.00;98542.97;5065693;28;20078;-71
2023/11/02 02:48:37;;;;;;;0.40;0.40;;;;;;;5.20;100.00;98543.97;5065712;28;20021;-70
2023/11/02 02:51:04;;;;;;;0.40;0.40;;;;;;;5.21;100.00;98531.06;5065590;28;20025;-71
2023/11/02 02:53:32;;;;;;;0.40;0.40;;;;;;;5.29;100.00;98522.38;5065476;28;20078;-70
2023/11/02 02:56:08;;;;;;;0.40;0.40;;;;;;;5.26;100.00;98525.00;5065283;28;20036;-71
2023/11/02 02:59:00;;;;;;;0.40;0.40;;;;;;;5.51;100.00;98519.44;5065194;28;20443;-71
2023/11/02 03:01:34;;;;;;;0.50;0.50;;;;;;;5.33;100.00;98506.00;5060826;28;20183;-71
2023/11/02 03:04:01;;;;;;;0.40;0.40;;;;;;;5.37;100.00;98506.81;5047310;28;20473;-70
2023/11/02 03:06:28;;;;;;;0.60;0.60;;;;;;;5.47;100.00;98503.19;5065200;28;20045;-72
2023/11/02 03:08:56;;;;;;;0.40;0.40;;;;;;;5.48;100.00;98502.28;5065265;28;20029;-71
2023/11/02 03:11:22;;;;;;;0.50;0.50;;;;;;;5.36;100.00;98497.38;5065104;28;20020;-70
2023/11/02 03:13:51;;;;;;;0.40;0.40;;;;;;;5.51;100.00;98502.25;5047061;28;20050;-71
2023/11/02 03:16:19;;;;;;;0.40;0.40;;;;;;;5.55;100.00;98503.91;5065068;28;20030;-71
2023/11/02 03:18:44;;;;;;;0.40;0.40;;;;;;;5.42;100.00;98494.69;5065086;28;20025;-70
2023/11/02 03:21:10;;;;;;;0.40;0.40;;;;;;;5.41;100.00;98493.88;5046923;28;20032;-70
2023/11/02 03:23:57;;;;;;;0.40;0.40;;;;;;;5.54;100.00;98489.31;5064829;28;20024;-70
2023/11/02 03:26:33;;;;;;;0.40;0.40;;;;;;;5.56;100.00;98478.97;5065173;28;20484;-70
2023/11/02 03:29:16;;;;;;;0.40;0.40;;;;;;;5.48;100.00;98471.41;5065257;28;20025;-70
2023/11/02 03:31:52;;;;;;;0.40;0.40;;;;;;;5.53;100.00;98468.75;5065004;28;20057;-70
2023/11/02 03:34:41;;;;;;;0.40;0.40;;;;;;;5.73;100.00;98478.69;5064085;28;20028;-71
2023/11/02 03:37:31;;;;;;;0.40;0.40;;;;;;;5.94;100.00;98486.84;4983462;28;20034;-70
2023/11/02 03:40:11;;;;;;;0.40;0.40;;;;;;;5.64;100.00;98481.44;4983671;28;20090;-70
2023/11/02 03:42:57;;;;;;;0.40;0.40;;;;;;;5.75;100.00;98469.19;4983143;28;20039;-71
2023/11/02 03:45:41;;;;;;;0.70;0.70;;;;;;;5.61;100.00;98464.31;4983634;28;20581;-70
2023/11/02 03:48:31;;;;;;;0.40;0.40;;;;;;;5.74;100.00;98476.94;4983515;28;20154;-70
2023/11/02 03:51:47;;;;;;;5.28;2.05;;;;;;;5.88;100.00;98476.69;4983561;28;20037;-70
2023/11/02 03:54:32;;;;;;;0.40;0.40;;;;;;;5.90;100.00;98486.06;4966841;28;20043;-70
2023/11/02 03:57:22;;;;;;;0.40;0.40;;;;;;;5.91;100.00;98477.44;4983366;28;20109;-69
2023/11/02 03:59:53;;;;;;;0.40;0.40;;;;;;;5.82;100.00;98477.63;4983334;28;20027;-70
2023/11/02 04:02:27;;;;;;;0.40;0.40;;;;;;;5.75;100.00;98470.94;4983170;28;20035;-69
2023/11/02 04:05:18;;;;;;;0.40;0.40;;;;;;;5.88;100.00;98472.34;4983413;28;20091;-70
2023/11/02 04:07:55;;;;;;;0.45;0.45;;;;;;;5.87;100.00;98480.13;4982971;28;20053;-70
2023/11/02 04:10:24;;;;;;;0.40;0.40;;;;;;;5.86;100.00;98479.28;4983119;28;20035;-70
2023/11/02 04:13:19;;;;;;;0.50;0.50;;;;;;;5.86;100.00;98474.13;4983250;28;20087;-70
2023/11/02 04:15:44;;;;;;;0.40;0.40;;;;;;;5.87;100.00;98470.66;5064282;28;20024;-70
2023/11/02 04:18:10;;;;;;;0.40;0.40;;;;;;;5.90;100.00;98465.47;5064257;28;20025;-70
2023/11/02 04:20:38;;;;;;;0.30;0.30;;;;;;;5.92;100.00;98460.28;5064448;28;20036;-70
2023/11/02 04:23:04;;;;;;;0.40;0.40;;;;;;;6.14;100.00;98458.13;5045947;28;20021;-70
2023/11/02 04:25:30;;;;;;;0.45;0.45;;;;;;;6.04;100.00;98444.59;5064391;28;20051;-70
2023/11/02 04:27:55;;;;;;;0.40;0.40;;;;;;;6.06;100.00;98448.00;5064352;28;20017;-70
2023/11/02 04:30:20;;;;;;;0.40;0.40;;;;;;;6.04;100.00;98446.28;5046436;28;20449;-70
2023/11/02 04:32:46;;;;;;;0.40;0.40;;;;;;;6.07;100.00;98443.69;5064380;28;20025;-70
2023/11/02 04:35:11;;;;;;;0.40;0.40;;;;;;;6.17;100.00;98441.75;5064020;28;20025;-71
2023/11/02 04:37:37;;;;;;;1.05;1.05;;;;;;;6.32;100.00;98435.41;5046147;28;20025;-71
2023/11/02 04:40:03;;;;;;;0.30;0.30;;;;;;;6.14;100.00;98437.50;5064068;28;20105;-71
2023/11/02 04:42:28;;;;;;;0.43;0.43;;;;;;;6.37;100.00;98435.28;5064496;28;20028;-70
2023/11/02 04:44:54;;;;;;;0.40;0.40;;;;;;;6.37;100.00;98432.72;5065202;28;20025;-70
2023/11/02 04:47:20;;;;;;;0.40;0.40;;;;;;;6.55;100.00;98432.28;5067848;28;20021;-71
2023/11/02 04:49:45;;;;;;;0.40;0.40;;;;;;;6.66;100.00;98424.28;5067795;28;20093;-71
2023/11/02 04:52:11;;;;;;;0.40;0.40;;;;;;;6.29;100.00;98414.84;5067868;28;20080;-71
2023/11/02 04:54:36;;;;;;;0.40;0.40;;;;;;;6.38;100.00;98419.78;5067398;28;20032;-71
2023/11/02 04:57:02;;;;;;;0.30;0.30;;;;;;;6.53;100.00;98428.06;5067527;28;20440;-71
2023/11/02 04:59:34;;;;;;;0.75;0.75;;;;;;;6.60;100.00;98410.72;5067592;28;20052;-70
2023/11/02 05:02:00;;;;;;;0.40;0.40;;;;;;;6.77;100.00;98402.56;5067658;28;20031;-70
2023/11/02 05:04:25;;;;;;;0.40;0.40;;;;;;;6.56;100.00;98404.78;5067347;28;20080;-71
2023/11/02 05:06:50;;;;;;;0.80;0.80;;;;;;;6.49;100.00;98400.63;5067351;28;20041;-71
2023/11/02 05:09:18;;;;;;;0.40;0.40;;;;;;;6.50;100.00;98404.94;5067196;28;20021;-70
2023/11/02 05:11:46;;;;;;;0.40;0.40;;;;;;;6.50;100.00;98394.63;5067344;28;20051;-71
2023/11/02 05:14:11;;;;;;;0.30;0.30;;;;;;;6.59;100.00;98396.09;5067431;28;20025;-70
2023/11/02 05:16:37;;;;;;;0.40;0.40;;;;;;;6.50;100.00;98392.03;5066933;28;20024;-69
2023/11/02 05:19:02;;;;;;;0.35;0.35;;;;;;;6.47;100.00;98387.78;5067385;28;20144;-70
2023/11/02 05:21:27;;;;;;;0.60;0.60;;;;;;;6.53;100.00;98397.13;5067034;28;20033;-70
2023/11/02 05:23:53;;;;;;;0.40;0.40;;;;;;;6.76;100.00;98387.94;5067029;28;20039;-70
2023/11/02 05:26:18;;;;;;;0.40;0.40;;;;;;;6.71;100.00;98387.25;5049188;28;20170;-70
2023/11/02 05:28:43;;;;;;;0.40;0.40;;;;;;;6.61;100.00;98384.91;5067212;28;20028;-70
2023/11/02 05:31:09;;;;;;;0.40;0.40;;;;;;;6.65;100.00;98381.34;5066869;28;20025;-70
2023/11/02 05:33:36;;;;;;;0.40;0.40;;;;;;;6.64;100.00;98379.66;5066636;28;20036;-71
2023/11/02 05:36:01;;;;;;;0.40;0.40;;;;;;;6.64;100.00;98369.34;5066690;28;20025;-71
2023/11/02 05:38:26;;;;;;;2.05;1.95;;;;;;;6.65;100.00;98376.19;5066673;28;20477;-69
2023/11/02 05:40:52;;;;;;;0.30;0.30;;;;;;;6.73;100.00;98381.16;5066881;28;20021;-69
2023/11/02 05:43:17;;;;;;;0.70;0.70;;;;;;;6.69;100.00;98371.81;5066864;28;20052;-68
2023/11/02 05:45:42;;;;;;;0.40;0.40;;;;;;;6.69;100.00;98370.06;5066849;28;20021;-69
2023/11/02 05:48:07;;;;;;;0.40;0.40;;;;;;;6.82;100.00;98367.19;5066771;28;20040;-70
2023/11/02 05:50:33;;;;;;;1.45;1.40;;;;;;;6.97;100.00;98375.38;5066838;28;20025;-71
2023/11/02 05:52:58;;;;;;;0.50;0.50;;;;;;;6.81;100.00;98375.78;5066561;28;20075;-70
2023/11/02 05:55:24;;;;;;;0.30;0.30;;;;;;;6.99;100.00;98382.22;5066311;28;20054;-69
2023/11/02 05:57:49;;;;;;;0.40;0.40;;;;;;;7.16;100.00;98388.63;5065804;28;20024;-70
2023/11/02 06:00:16;;;;;;;0.30;0.30;;;;;;;7.02;100.00;98386.44;5066575;28;20025;-69
2023/11/02 06:02:41;;;;;;;0.50;0.50;;;;;;;6.99;100.00;98378.78;5048775;28;20057;-71
2023/11/02 06:05:08;;;;;;;0.40;0.40;;;;;;;7.14;100.00;98377.53;5048739;28;20030;-70
2023/11/02 06:07:33;;;;;;;0.40;0.40;;;;;;;7.04;100.00;98369.19;5048316;28;20497;-70
2023/11/02 06:09:59;;;;;;;0.30;0.30;;;;;;;7.07;100.00;98377.69;5066458;28;20025;-70
2023/11/02 06:12:28;;;;;;;0.30;0.30;;;;;;;7.19;100.00;98379.09;5066437;28;20053;-70
2023/11/02 06:14:54;;;;;;;0.40;0.40;;;;;;;7.23;100.00;98376.41;5066387;28;20513;-70
2023/11/02 06:17:20;;;;;;;0.60;0.60;;;;;;;7.24;100.00;98372.94;5066592;28;20040;-69
2023/11/02 06:19:45;;;;;;;0.30;0.30;;;;;;;7.15;100.00;98363.72;5048287;28;20032;-70
2023/11/02 06:22:12;;;;;;;0.40;0.40;;;;;;;7.12;100.00;98374.13;5048279;28;20028;-69
2023/11/02 06:24:38;;;;;;;0.52;0.52;;;;;;;7.06;100.00;98363.09;5047817;28;20123;-69
2023/11/02 06:27:04;;;;;;;0.30;0.30;;;;;;;7.36;100.00;98358.84;5066003;28;20021;-69
2023/11/02 06:29:30;;;;;;;0.30;0.30;;;;;;;7.23;100.00;98363.50;5066113;28;20115;-68
2023/11/02 06:31:55;;;;;;;0.40;0.40;;;;;;;7.21;100.00;98362.69;5066135;28;20442;-69
2023/11/02 06:34:21;;;;;;;0.40;0.40;;;;;;;7.34;100.00;98364.06;5065902;28;20020;-70
2023/11/02 06:36:46;;;;;;;0.43;0.43;;;;;;;7.17;100.00;98362.78;5048178;28;20028;-69
2023/11/02 06:39:16;;;;;;;0.40;0.40;;;;;;;7.34;100.00;98353.75;5047633;28;20028;-69
2023/11/02 06:41:42;;;;;;;0.55;0.55;;;;;;;7.33;100.00;98362.38;5066104;28;20021;-68
2023/11/02 06:44:07;;;;;;;0.40;0.40;;;;;;;7.36;100.00;98364.88;5065899;28;20021;-68
2023/11/02 06:46:33;;;;;;;0.30;0.30;;;;;;;7.23;100.00;98354.03;5066013;28;20021;-69
2023/11/02 06:48:58;;;;;;;0.40;0.40;;;;;;;7.28;100.00;98356.50;5065963;28;20029;-67
2023/11/02 06:51:25;;;;;;;0.40;0.40;;;;;;;7.40;100.00;98358.72;5066004;28;20029;-68
2023/11/02 06:53:51;;;;;;;0.40;0.40;;;;;;;7.31;100.00;98356.41;5065722;28;20021;-68
2023/11/02 06:56:17;;;;;;;1.77;1.63;;;;;;;7.42;100.00;98369.88;5047722;28;20024;-68
2023/11/02 06:58:43;;;;;;;0.50;0.50;;;;;;;7.47;100.00;98368.88;5065787;28;20031;-69
2023/11/02 07:01:08;;;;;;;0.40;0.40;;;;;;;7.54;100.00;98371.25;5065692;28;20053;-68
2023/11/02 07:03:33;;;;;;;0.40;0.40;;;;;;;7.57;100.00;98355.66;5065477;28;20071;-68
2023/11/02 07:05:59;;;;;;;0.32;0.32;;;;;;;7.49;100.00;98365.34;5065501;28;20114;-68
2023/11/02 07:08:24;;;;;;;0.30;0.30;;;;;;;7.59;100.00;98367.69;5064384;28;20072;-68
2023/11/02 07:10:50;;;;;;;0.40;0.40;;;;;;;7.49;100.00;98370.50;5047321;28;20036;-69
2023/11/02 07:13:15;;;;;;;0.35;0.35;;;;;;;7.55;100.00;98364.34;5047444;28;20028;-67
2023/11/02 07:15:41;;;;;;;0.98;0.98;;;;;;;7.60;100.00;98367.66;5047216;28;20021;-68
2023/11/02 07:18:07;;;;;;;0.30;0.30;;;;;;;7.58;100.00;98369.41;5047472;28;20028;-68
2023/11/02 07:20:32;;;;;;;0.40;0.40;;;;;;;7.62;100.00;98352.94;5065146;28;20092;-69
2023/11/02 07:22:58;;;;;;;0.40;0.40;;;;;;;7.63;100.00;98354.66;5065230;28;20028;-68
2023/11/02 07:25:23;;;;;;;0.30;0.30;;;;;;;7.69;100.00;98354.47;5065040;28;20029;-68
2023/11/02 07:27:49;;;;;;;0.52;0.52;;;;;;;7.80;100.00;98350.69;5065132;28;20021;-68
2023/11/02 07:30:14;;;;;;;0.50;0.50;;;;;;;7.78;100.00;98355.91;5065146;28;20064;-68
2023/11/02 07:32:41;;;;;;;1.08;1.08;;;;;;;7.73;100.00;98344.03;5064894;28;20025;-69
2023/11/02 07:35:07;;;;;;;0.32;0.32;;;;;;;7.74;100.00;98346.56;5047133;28;20016;-68
2023/11/02 07:37:32;;;;;;;0.38;0.38;;;;;;;7.68;100.00;98342.41;5064948;28;20032;-69
2023/11/02 07:39:58;;;;;;;0.40;0.40;;;;;;;7.67;100.00;98333.00;5046808;28;20020;-68
2023/11/02 07:42:23;;;;;;;0.35;0.35;;;;;;;7.72;100.00;98337.16;5064994;28;20151;-69
2023/11/02 07:44:49;;;;;;;0.30;0.30;;;;;;;7.92;100.00;98331.41;5064855;28;20028;-68
2023/11/02 07:47:14;;;;;;;0.50;0.50;;;;;;;7.85;100.00;98329.88;5046956;28;20303;-70
2023/11/02 07:49:39;;;;;;;0.40;0.40;;;;;;;7.83;100.00;98332.53;5064968;28;20028;-68
2023/11/02 07:52:06;;;;;;;0.65;0.65;;;;;;;7.90;100.00;98336.63;5065120;28;20047;-69
2023/11/02 07:54:36;;;;;;;0.30;0.30;;;;;;;7.95;100.00;98328.72;5064639;28;20024;-69
2023/11/02 07:57:07;;;;;;;0.57;0.57;;;;;;;7.91;100.00;98330.56;5065080;28;20029;-69
2023/11/02 07:59:33;;;;;;;0.40;0.40;;;;;;;7.85;100.00;98323.00;5046896;28;20025;-69
2023/11/02 08:01:58;;;;;;;0.30;0.30;;;;;;;7.95;100.00;98320.97;5064700;28;20055;-69
2023/11/02 08:04:24;;;;;;;0.40;0.40;;;;;;;8.13;100.00;98300.59;5064813;28;20028;-68
2023/11/02 08:06:49;;;;;;;0.50;0.50;;;;;;;8.12;100.00;98304.91;5064658;28;20045;-69
2023/11/02 08:09:14;;;;;;;1.20;1.20;;;;;;;8.02;100.00;98306.94;5064618;28;20033;-68
2023/11/02 08:11:40;;;;;;;0.30;0.30;;;;;;;8.04;100.00;98307.75;5064757;28;20017;-69
2023/11/02 08:14:05;;;;;;;0.30;0.30;;;;;;;8.37;100.00;98298.94;5064834;28;20400;-68
2023/11/02 08:16:30;;;;;;;0.43;0.43;;;;;;;8.27;100.00;98294.97;5064567;28;20043;-69
2023/11/02 08:18:56;;;;;;;0.45;0.45;;;;;;;8.24;100.00;98290.75;5064881;28;20025;-69
2023/11/02 08:21:21;;;;;;;0.35;0.35;;;;;;;8.29;100.00;98296.59;5068477;28;20382;-69
2023/11/02 08:23:47;;;;;;;0.70;0.70;;;;;;;8.31;100.00;98300.00;5068387;28;20480;-70
2023/11/02 08:26:12;;;;;;;0.30;0.30;;;;;;;8.31;100.00;98300.00;5068529;28;20114;-68
2023/11/02 08:28:37;;;;;;;1.13;1.13;;;;;;;8.43;100.00;98292.72;5050557;28;20020;-68
2023/11/02 08:31:03;;;;;;;0.30;0.30;;;;;;;8.38;100.00;98294.63;5068388;28;20093;-70
2023/11/02 08:33:28;;;;;;;0.43;0.43;;;;;;;8.27;100.00;98297.56;5068449;28;20029;-69
2023/11/02 08:35:54;;;;;;;0.63;0.63;;;;;;;8.37;100.00;98301.53;5050297;28;20112;-69
2023/11/02 08:38:19;;;;;;;0.30;0.30;;;;;;;8.38;100.00;98297.22;5050356;28;20025;-69
2023/11/02 08:40:45;;;;;;;0.30;0.30;;;;;;;8.38;100.00;98285.13;5068071;28;20027;-70
2023/11/02 08:43:10;;;;;;;0.30;0.30;;;;;;;8.51;100.00;98287.28;5050370;28;20021;-70
2023/11/02 08:45:36;;;;;;;0.40;0.40;;;;;;;8.52;100.00;98282.06;5068036;28;20021;-71
2023/11/02 08:48:01;;;;;;;0.80;0.80;;;;;;;8.71;100.00;98298.72;5068175;28;20080;-72
2023/11/02 08:50:27;;;;;;;0.30;0.30;;;;;;;8.59;100.00;98285.31;5068211;28;20029;-71
2023/11/02 08:52:53;;;;;;;0.40;0.40;;;;;;;8.58;100.00;98275.03;5067926;28;20535;-72
2023/11/02 08:55:18;;;;;;;0.30;0.30;;;;;;;8.92;100.00;98272.09;5049909;28;20033;-75
2023/11/02 08:57:45;;;;;;;0.30;0.30;;;;;;;8.48;100.00;98259.78;5049924;28;20489;-72
2023/11/02 09:00:10;;;;;;;0.40;0.40;;;;;;;8.42;100.00;98263.44;5067995;28;20028;-73
2023/11/02 09:02:36;;;;;;;0.40;0.40;;;;;;;8.64;100.00;98267.06;5068138;28;20025;-73
2023/11/02 09:05:03;;;;;;;1.00;1.00;;;;;;;8.50;100.00;98267.50;5049835;28;20025;-72
2023/11/02 09:07:30;;;;;;;0.30;0.30;;;;;;;8.57;100.00;98260.41;5049624;28;20056;-73
2023/11/02 09:09:56;;;;;;;0.40;0.40;;;;;;;8.51;100.00;98264.88;5067682;28;20358;-72
2023/11/02 09:12:22;;;;;;;0.60;0.60;;;;;;;8.49;100.00;98261.50;5050062;28;20021;-71
2023/11/02 09:14:47;;;;;;;0.40;0.40;;;;;;;8.56;100.00;98259.56;5067734;28;20032;-72
2023/11/02 09:17:13;;;;;;;0.40;0.40;;;;;;;8.54;100.00;98261.31;5049664;28;20033;-72
2023/11/02 09:19:38;;;;;;;0.38;0.38;;;;;;;8.53;100.00;98236.38;5067802;28;20044;-72
2023/11/02 09:22:04;;;;;;;0.40;0.40;;;;;;;8.71;100.00;98234.88;5067593;28;20031;-71
2023/11/02 09:24:29;;;;;;;0.40;0.40;;;;;;;8.69;100.00;98241.84;5067236;28;20373;-71
2023/11/02 09:26:55;;;;;;;0.30;0.30;;;;;;;8.72;100.00;98228.81;5067752;28;20032;-71
2023/11/02 09:29:21;;;;;;;0.40;0.40;;;;;;;8.71;100.00;98247.81;5067574;28;20389;-72
2023/11/02 09:31:46;;;;;;;0.90;0.90;;;;;;;8.82;100.00;98218.16;5066389;28;20473;-72
2023/11/02 09:34:12;;;;;;;0.30;0.30;;;;;;;8.78;100.00;98228.63;5049223;28;20048;-70
2023/11/02 09:36:37;;;;;;;0.40;0.40;;;;;;;8.86;100.00;98211.94;5067175;28;20025;-71
2023/11/02 09:39:07;;;;;;;0.40;0.40;;;;;;;8.74;100.00;98223.59;5067186;28;20025;-69
2023/11/02 09:41:34;;;;;;;0.30;0.30;;;;;;;9.17;99.66;98216.81;5067135;28;20025;-70
2023/11/02 09:43:59;;;;;;;0.40;0.40;;;;;;;8.88;100.00;98215.34;5067025;28;20047;-69
2023/11/02 09:46:24;;;;;;;0.50;0.50;;;;;;;8.84;100.00;98219.78;5067075;28;20020;-68
2023/11/02 09:48:50;;;;;;;1.00;1.00;;;;;;;8.81;100.00;98204.34;5067271;28;20018;-72
2023/11/02 09:51:16;;;;;;;0.88;0.88;;;;;;;8.83;100.00;98202.56;5067091;28;20039;-71
2023/11/02 09:53:41;;;;;;;0.35;0.35;;;;;;;8.91;100.00;98208.28;5066875;28;20048;-70
2023/11/02 09:56:07;;;;;;;0.40;0.40;;;;;;;9.09;100.00;98212.84;5066933;28;20468;-71
2023/11/02 09:58:33;;;;;;;3.42;2.58;;;;;;;9.03;100.00;98212.16;5048893;28;20021;-70
2023/11/02 10:01:00;;;;;;;4.28;2.10;;;;;;;9.15;100.00;98223.78;5066908;28;20048;-70
2023/11/02 10:03:25;;;;;;;1.23;1.00;;;;;;;9.07;100.00;98206.88;5066555;28;20470;-70
2023/11/02 10:05:51;;;;;;;3.13;2.83;;;;;;;9.08;100.00;98222.34;5066598;28;20089;-73
2023/11/02 10:08:17;;;;;;;3.88;1.98;;;;;;;9.10;100.00;98204.16;5066558;28;20041;-72
2023/11/02 10:10:42;;;;;;;4.70;2.33;;;;;;;8.88;100.00;98190.28;5048351;28;20056;-72
2023/11/02 10:13:08;;;;;;;2.88;2.67;;;;;;;9.06;100.00;98198.25;5066565;28;20032;-72
2023/11/02 10:15:34;;;;;;;2.97;2.22;;;;;;;9.42;99.04;98187.38;5066482;28;20025;-71
2023/11/02 10:17:59;;;;;;;3.13;2.78;;;;;;;9.33;98.71;98199.88;5066260;28;20021;-72
2023/11/02 10:20:25;;;;;;;3.30;2.28;;;;;;;9.27;98.89;98180.22;5048272;28;20047;-71
2023/11/02 10:22:57;;;;;;;2.47;1.95;;;;;;;9.14;100.00;98196.22;5066265;28;20434;-71
2023/11/02 10:25:23;;;;;;;0.77;0.77;;;;;;;9.04;100.00;98184.56;5066151;28;20052;-70
2023/11/02 10:27:49;;;;;;;3.63;2.40;;;;;;;9.16;100.00;98180.63;5066286;28;20017;-71
2023/11/02 10:30:17;;;;;;;2.70;1.80;;;;;;;9.07;100.00;98179.25;5048255;28;20025;-70
2023/11/02 10:32:43;;;;;;;2.42;2.13;;;;;;;9.11;100.00;98179.97;5048097;28;20021;-70
2023/11/02 10:35:09;;;;;;;2.55;2.35;;;;;;;9.43;100.00;98172.69;5048203;28;20021;-71
2023/11/02 10:37:36;;;;;;;3.95;1.98;;;;;;;9.39;100.00;98169.38;5048076;28;20035;-70
2023/11/02 10:40:03;;;;;;;4.00;2.53;;;;;;;9.28;100.00;98167.22;5065969;28;20108;-71
2023/11/02 10:42:29;;;;;;;2.15;1.88;;;;;;;9.41;100.00;98162.38;5065791;28;20031;-70
2023/11/02 10:44:56;;;;;;;2.13;1.88;;;;;;;9.47;100.00;98156.16;5065963;28;20028;-70
2023/11/02 10:47:27;;;;;;;3.72;1.92;;;;;;;9.57;100.00;98156.59;5047944;28;20052;-70
2023/11/02 10:49:55;;;;;;;2.22;1.83;;;;;;;9.62;98.77;98138.25;5065906;28;20025;-71
2023/11/02 10:52:47;;;;;;;4.75;2.80;;;;;;;9.52;100.00;98149.00;5065854;28;20385;-71
2023/11/02 10:55:18;;;;;;;3.50;1.23;;;;;;;9.53;100.00;98145.53;5047233;28;20063;-70
2023/11/02 10:57:47;;;;;;;7.63;2.72;;;;;;;9.58;99.12;98124.63;5065681;28;20116;-71
2023/11/02 11:00:15;;;;;;;2.10;1.90;;;;;;;9.50;100.00;98117.16;5047668;28;20049;-72
2023/11/02 11:02:44;;;;;;;3.13;2.47;;;;;;;9.62;99.65;98118.41;5065756;28;20047;-71
2023/11/02 11:05:10;;;;;;;6.60;3.17;;;;;;;9.50;100.00;98119.75;5047414;28;20025;-72
2023/11/02 11:07:37;;;;;;;3.05;1.95;;;;;;;9.75;98.94;98118.72;5047329;28;20079;-70
2023/11/02 11:10:03;;;;;;;2.58;2.38;;;;;;;9.68;99.29;98138.00;5065354;28;20021;-72
2023/11/02 11:12:30;;;;;;;5.90;1.75;;;;;;;9.60;100.00;98129.72;5047611;28;20064;-71
2023/11/02 11:14:57;;;;;;;4.13;3.08;;;;;;;9.86;97.29;98146.78;5065369;28;20048;-72
2023/11/02 11:17:23;;;;;;;3.75;2.53;;;;;;;9.84;97.29;98145.16;5065369;28;20021;-72
2023/11/02 11:19:49;;;;;;;3.08;2.30;;;;;;;9.79;98.44;98151.38;5065409;28;20060;-72
2023/11/02 11:22:27;;;;;;;8.40;4.43;;;;;;;9.78;98.96;98156.63;5065307;28;20029;-72
2023/11/02 11:24:54;;;;;;;1.33;1.23;;;;;;;9.86;99.59;98166.66;5047305;28;20044;-72
2023/11/02 11:27:50;;;;;;;3.58;2.22;;;;;;;10.11;98.06;98163.06;5047257;28;20017;-73
2023/11/02 11:30:21;;;;;;;2.55;2.35;;;;;;;10.15;95.93;98149.88;5058927;28;20033;-73
2023/11/02 11:32:48;;;;;;;4.78;2.65;;;;;;;10.06;97.38;98152.88;5065174;28;20032;-72
2023/11/02 11:35:16;;;;;;;2.55;2.35;;;;;;;10.06;98.54;98150.28;5065075;28;20556;-72
2023/11/02 11:37:47;;;;;;;2.97;1.20;;;;;;;10.13;96.77;98143.06;5065128;28;20025;-73
2023/11/02 11:40:19;;;;;;;1.02;0.82;;;;;;;10.52;93.63;98138.84;5064820;28;20047;-71
2023/11/02 11:45:50;;;;;;;3.17;2.28;;;;;;;10.45;94.24;98140.00;5065096;28;20029;-74
2023/11/02 11:48:36;;;;;;;5.22;2.63;;;;;;;10.37;94.77;98135.13;5065013;28;20039;-72
2023/11/02 11:51:31;;;;;;;2.28;1.98;;;;;;;10.59;92.29;98144.59;5046981;28;20016;-73